Castleton, Virginia
Current Conditions -  °F | °C
As of 11:35 AM on Wednesday 22 Oct 2014 (Local Time) from KCJR Reporting Station
Broken Clouds Broken Clouds  
Wind Chill: 59°   Ceiling: 4000
Heat Index: 59°   Visibility: 10mi
Dew Point: 48°   Wind: 10mph
Humidity: 67%   Direction: 350°N
Pressure: 29.97"   Gusts: 23mph
Location:  38.61°N, 78.11°W
Report Text: KCJR 221535Z AUTO 35009G20KT 10SM SCT034 BKN040 BKN055 15/09 A2997 RMK AO2
Loading
Personal Weather Stations






























Interactive Weather Map
Tropical Storm Tracking
New forecast layout! Learn more

10-Day Weather Forecast

Advertisements
Track Severe Weather on mobile